createdAt,value
2018-11-11T00:00:06.695Z,0.00
2018-11-11T00:01:06.700Z,0.00
2018-11-11T00:02:06.662Z,0.00
2018-11-11T00:03:06.648Z,0.00
2018-11-11T00:04:06.638Z,0.00
2018-11-11T00:05:06.626Z,0.00
2018-11-11T00:06:06.638Z,0.00
2018-11-11T00:07:06.607Z,0.00
2018-11-11T00:08:06.593Z,0.00
2018-11-11T00:09:06.587Z,0.00
2018-11-11T00:10:06.590Z,0.00
2018-11-11T00:11:06.586Z,0.00
2018-11-11T00:12:06.545Z,0.00
2018-11-11T00:13:06.548Z,0.00
2018-11-11T00:14:06.524Z,0.00
2018-11-11T00:15:06.515Z,0.00
2018-11-11T00:16:06.531Z,0.00
2018-11-11T00:17:06.490Z,0.00
2018-11-11T00:18:06.481Z,0.00
2018-11-11T00:19:06.478Z,0.00
2018-11-11T00:20:06.461Z,0.00
2018-11-11T00:21:06.494Z,0.00
2018-11-11T00:22:06.442Z,0.00
2018-11-11T00:23:06.426Z,0.00
2018-11-11T00:24:06.486Z,0.00
2018-11-11T00:25:06.409Z,0.00
2018-11-11T00:26:06.429Z,0.00
2018-11-11T00:27:06.385Z,0.00
2018-11-11T00:28:06.368Z,0.00
2018-11-11T00:29:06.363Z,0.00
2018-11-11T00:30:06.347Z,0.00
2018-11-11T00:31:06.375Z,0.00
2018-11-11T00:32:06.324Z,0.00
2018-11-11T00:33:06.343Z,0.00
2018-11-11T00:34:06.302Z,0.00
2018-11-11T00:35:06.323Z,0.00
2018-11-11T00:36:06.306Z,0.00
2018-11-11T00:37:06.270Z,0.00
2018-11-11T00:38:06.268Z,0.00
2018-11-11T00:39:06.243Z,0.00
2018-11-11T00:40:06.234Z,0.00
2018-11-11T00:41:06.276Z,0.00
2018-11-11T00:42:06.222Z,0.00
2018-11-11T00:43:06.209Z,0.00
2018-11-11T00:44:06.189Z,0.00
2018-11-11T00:45:06.177Z,0.00
2018-11-11T00:46:06.201Z,0.00
2018-11-11T00:47:06.153Z,0.00
2018-11-11T00:48:06.175Z,0.00
2018-11-11T00:49:06.135Z,0.00
2018-11-11T00:50:06.128Z,0.00
2018-11-11T00:51:06.143Z,0.00
2018-11-11T00:52:06.117Z,0.00
2018-11-11T00:53:06.092Z,0.00
2018-11-11T00:54:06.081Z,0.00
2018-11-11T00:55:06.083Z,0.00
2018-11-11T00:56:06.053Z,0.00
2018-11-11T00:57:06.070Z,0.00
2018-11-11T00:58:06.035Z,0.00
2018-11-11T00:59:06.021Z,0.00
2018-11-11T01:00:06.016Z,0.00
2018-11-11T01:01:05.999Z,0.00
2018-11-11T01:02:06.016Z,0.00
2018-11-11T01:03:05.978Z,0.00
2018-11-11T01:04:05.965Z,0.00
2018-11-11T01:05:05.953Z,0.00
2018-11-11T01:06:05.942Z,0.00
2018-11-11T01:07:05.934Z,0.00
2018-11-11T01:08:05.946Z,0.00
2018-11-11T01:09:05.930Z,0.00
2018-11-11T01:10:05.903Z,0.00
2018-11-11T01:11:05.892Z,0.00
2018-11-11T01:12:05.892Z,0.00
2018-11-11T01:13:05.890Z,0.00
2018-11-11T01:14:05.854Z,0.00
2018-11-11T01:15:05.842Z,0.00
2018-11-11T01:16:05.847Z,0.00
2018-11-11T01:17:05.830Z,0.00
2018-11-11T01:18:05.840Z,0.00
2018-11-11T01:19:05.801Z,0.00
2018-11-11T01:20:05.791Z,0.00
2018-11-11T01:21:05.794Z,0.00
2018-11-11T01:22:05.766Z,0.00
2018-11-11T01:23:05.779Z,0.00
2018-11-11T01:24:05.748Z,0.00
2018-11-11T01:25:05.735Z,0.00
2018-11-11T01:26:05.731Z,0.00
2018-11-11T01:27:05.719Z,0.00
2018-11-11T01:28:05.701Z,0.00
2018-11-11T01:29:05.716Z,0.00
2018-11-11T01:30:05.676Z,0.00
2018-11-11T01:31:05.670Z,0.00
2018-11-11T01:32:05.654Z,0.00
2018-11-11T01:33:05.647Z,0.00
2018-11-11T01:34:05.659Z,0.00
2018-11-11T01:35:05.624Z,0.00
2018-11-11T01:36:05.618Z,0.00
2018-11-11T01:37:05.597Z,0.00
2018-11-11T01:38:05.589Z,0.00
2018-11-11T01:39:05.616Z,0.00
2018-11-11T01:40:05.569Z,0.00
2018-11-11T01:41:05.555Z,0.00
2018-11-11T01:42:05.542Z,0.00
2018-11-11T01:43:05.540Z,0.00
2018-11-11T01:44:05.548Z,0.00
2018-11-11T01:45:05.512Z,0.00
2018-11-11T01:46:05.497Z,0.00
2018-11-11T01:47:05.488Z,0.00
2018-11-11T01:48:05.477Z,0.00
2018-11-11T01:49:05.492Z,0.00
2018-11-11T01:50:05.455Z,0.00
2018-11-11T01:51:05.441Z,0.00
2018-11-11T01:52:05.443Z,0.00
2018-11-11T01:53:05.422Z,0.00
2018-11-11T01:54:05.431Z,0.00
2018-11-11T01:55:05.398Z,0.00
2018-11-11T01:56:05.392Z,0.00
2018-11-11T01:57:05.373Z,0.00
2018-11-11T01:58:05.362Z,0.00
2018-11-11T01:59:05.374Z,0.00
2018-11-11T02:00:05.342Z,0.00
2018-11-11T02:01:05.338Z,0.00
2018-11-11T02:02:05.327Z,0.00
2018-11-11T02:03:05.306Z,0.00
2018-11-11T02:04:05.324Z,0.00
2018-11-11T02:05:05.292Z,0.00
2018-11-11T02:06:05.273Z,0.00
2018-11-11T02:07:05.287Z,0.00
2018-11-11T02:08:05.263Z,0.00
2018-11-11T02:09:05.264Z,0.00
2018-11-11T02:10:05.230Z,0.00
2018-11-11T02:11:05.217Z,0.00
2018-11-11T02:12:05.209Z,0.00
2018-11-11T02:13:05.197Z,0.00
2018-11-11T02:14:05.233Z,0.00
2018-11-11T02:15:05.175Z,0.00
2018-11-11T02:16:05.171Z,0.00
2018-11-11T02:17:05.150Z,0.00
2018-11-11T02:18:05.140Z,0.00
2018-11-11T02:19:05.134Z,0.00
2018-11-11T02:20:05.144Z,0.00
2018-11-11T02:21:05.220Z,0.00
2018-11-11T02:22:05.101Z,0.00
2018-11-11T02:23:05.082Z,0.00
2018-11-11T02:24:05.080Z,0.00
2018-11-11T02:25:05.085Z,0.00
2018-11-11T02:26:05.056Z,0.00
2018-11-11T02:27:05.040Z,0.00
2018-11-11T02:28:05.028Z,0.00
2018-11-11T02:29:05.017Z,0.00
2018-11-11T02:30:05.043Z,0.00
2018-11-11T02:31:05.005Z,0.00
2018-11-11T02:32:04.982Z,0.00
2018-11-11T02:33:04.977Z,0.00
2018-11-11T02:34:04.977Z,0.00
2018-11-11T02:35:04.977Z,0.00
2018-11-11T02:36:04.944Z,0.00
2018-11-11T02:37:04.928Z,0.00
2018-11-11T02:38:04.915Z,0.00
2018-11-11T02:39:04.905Z,0.00
2018-11-11T02:40:04.929Z,0.00
2018-11-11T02:41:04.891Z,0.00
2018-11-11T02:42:04.878Z,0.00
2018-11-11T02:43:04.873Z,0.00
2018-11-11T02:44:04.854Z,0.00
2018-11-11T02:45:04.861Z,0.00
2018-11-11T02:46:04.836Z,0.00
2018-11-11T02:47:04.825Z,0.00
2018-11-11T02:48:04.805Z,0.00
2018-11-11T02:49:04.792Z,0.00
2018-11-11T02:50:04.804Z,0.00
2018-11-11T02:51:04.788Z,0.00
2018-11-11T02:52:04.756Z,0.00
2018-11-11T02:53:04.747Z,0.00
2018-11-11T02:54:04.741Z,0.00
2018-11-11T02:55:04.749Z,0.00
2018-11-11T02:56:04.728Z,0.00
2018-11-11T02:57:04.705Z,0.00
2018-11-11T02:58:04.691Z,0.00
2018-11-11T02:59:04.686Z,0.00
2018-11-11T03:00:04.696Z,0.00
2018-11-11T03:01:04.659Z,0.00
2018-11-11T03:02:04.669Z,0.00
2018-11-11T03:03:04.635Z,0.00
2018-11-11T03:04:04.629Z,0.00
2018-11-11T03:05:04.643Z,0.00
2018-11-11T03:06:04.605Z,0.00
2018-11-11T03:07:04.590Z,0.00
2018-11-11T03:08:04.585Z,0.00
2018-11-11T03:09:04.578Z,0.00
2018-11-11T03:10:04.583Z,0.00
2018-11-11T03:11:04.547Z,0.00
2018-11-11T03:12:04.538Z,0.00
2018-11-11T03:13:04.529Z,0.00
2018-11-11T03:14:04.510Z,0.00
2018-11-11T03:15:04.528Z,0.00
2018-11-11T03:16:04.514Z,0.00
2018-11-11T03:17:04.487Z,0.00
2018-11-11T03:18:04.470Z,0.00
2018-11-11T03:19:04.471Z,0.00
2018-11-11T03:20:04.453Z,0.00
2018-11-11T03:21:04.460Z,0.00
2018-11-11T03:22:04.427Z,0.00
2018-11-11T03:23:04.418Z,0.00
2018-11-11T03:24:04.407Z,0.00
2018-11-11T03:25:04.406Z,0.00
2018-11-11T03:26:04.408Z,0.00
2018-11-11T03:27:04.368Z,0.00
2018-11-11T03:28:04.374Z,0.00
2018-11-11T03:29:04.351Z,0.00
2018-11-11T03:30:04.333Z,0.00
2018-11-11T03:31:04.357Z,0.00
2018-11-11T03:32:04.344Z,0.00
2018-11-11T03:33:04.304Z,0.00
2018-11-11T03:34:04.297Z,0.00
2018-11-11T03:35:04.278Z,0.00
2018-11-11T03:36:04.317Z,0.00
2018-11-11T03:37:04.255Z,0.00
2018-11-11T03:38:04.248Z,0.00
2018-11-11T03:39:04.236Z,0.00
2018-11-11T03:40:04.226Z,0.00
2018-11-11T03:41:04.241Z,0.00
2018-11-11T03:42:04.199Z,0.00
2018-11-11T03:43:04.193Z,0.00
2018-11-11T03:44:04.202Z,0.00
2018-11-11T03:45:04.165Z,0.00
2018-11-11T03:46:04.182Z,0.00
2018-11-11T03:47:04.147Z,0.00
2018-11-11T03:48:04.134Z,0.00
2018-11-11T03:49:04.121Z,0.00
2018-11-11T03:50:04.113Z,0.00
2018-11-11T03:51:04.136Z,0.00
2018-11-11T03:52:04.091Z,0.00
2018-11-11T03:53:04.080Z,0.00
2018-11-11T03:54:04.065Z,0.00
2018-11-11T03:55:04.058Z,0.00
2018-11-11T03:56:04.074Z,0.00
2018-11-11T03:57:04.043Z,0.00
2018-11-11T03:58:04.023Z,0.00
2018-11-11T03:59:04.027Z,0.00
2018-11-11T04:00:04.000Z,0.00
2018-11-11T04:01:04.012Z,0.00
2018-11-11T04:02:03.979Z,0.00
2018-11-11T04:03:03.964Z,0.00
2018-11-11T04:04:03.959Z,0.00
2018-11-11T04:05:03.952Z,0.00
2018-11-11T04:06:03.957Z,0.00
2018-11-11T04:07:03.938Z,0.00
2018-11-11T04:08:03.912Z,0.00
2018-11-11T04:09:03.907Z,0.00
2018-11-11T04:10:03.948Z,0.00
2018-11-11T04:11:03.902Z,0.00
2018-11-11T04:12:03.884Z,0.00
2018-11-11T04:13:03.858Z,0.00
2018-11-11T04:14:03.843Z,0.00
2018-11-11T04:15:03.838Z,0.00
2018-11-11T04:16:03.830Z,0.00
2018-11-11T04:17:03.843Z,0.00
2018-11-11T04:18:03.797Z,0.00
2018-11-11T04:19:03.786Z,0.00
2018-11-11T04:20:03.813Z,0.00
2018-11-11T04:21:03.786Z,0.00
2018-11-11T04:22:03.800Z,0.00
2018-11-11T04:23:03.749Z,0.00
2018-11-11T04:24:03.731Z,0.00
2018-11-11T04:25:03.726Z,0.00
2018-11-11T04:26:03.717Z,0.00
2018-11-11T04:27:03.729Z,0.00
2018-11-11T04:28:03.714Z,0.00
2018-11-11T04:29:03.677Z,0.00
2018-11-11T04:30:03.672Z,0.00
2018-11-11T04:31:03.652Z,0.00
2018-11-11T04:32:03.665Z,0.00
2018-11-11T04:33:03.642Z,0.00
2018-11-11T04:34:03.622Z,0.00
2018-11-11T04:35:03.620Z,0.00
2018-11-11T04:36:03.599Z,0.00
2018-11-11T04:37:03.614Z,0.00
2018-11-11T04:38:03.593Z,0.00
2018-11-11T04:39:03.614Z,0.00
2018-11-11T04:40:03.552Z,0.00
2018-11-11T04:41:03.551Z,0.00
2018-11-11T04:42:03.555Z,0.00
2018-11-11T04:43:03.534Z,0.00
2018-11-11T04:44:03.508Z,0.00
2018-11-11T04:45:03.503Z,0.00
2018-11-11T04:46:03.487Z,0.00
2018-11-11T04:47:03.514Z,0.00
2018-11-11T04:48:03.462Z,0.00
2018-11-11T04:49:03.460Z,0.00
2018-11-11T04:50:03.442Z,0.00
2018-11-11T04:51:03.428Z,0.00
2018-11-11T04:52:03.447Z,0.00
2018-11-11T04:53:03.432Z,0.00
2018-11-11T04:54:03.397Z,0.00
2018-11-11T04:55:03.409Z,0.00
2018-11-11T04:56:03.372Z,0.00
2018-11-11T04:57:03.395Z,0.00
2018-11-11T04:58:03.360Z,0.00
2018-11-11T04:59:03.339Z,0.00
2018-11-11T05:00:03.330Z,0.00
2018-11-11T05:01:03.317Z,0.00
2018-11-11T05:02:03.348Z,0.00
2018-11-11T05:03:03.298Z,0.00
2018-11-11T05:04:03.286Z,0.00
2018-11-11T05:05:03.283Z,0.00
2018-11-11T05:06:03.263Z,0.00
2018-11-11T05:07:03.274Z,0.00
2018-11-11T05:08:03.239Z,0.00
2018-11-11T05:09:03.234Z,0.00
2018-11-11T05:10:03.216Z,0.00
2018-11-11T05:11:03.215Z,0.00
2018-11-11T05:12:03.201Z,0.00
2018-11-11T05:13:03.207Z,0.00
2018-11-11T05:14:03.175Z,0.00
2018-11-11T05:15:03.168Z,0.00
2018-11-11T05:16:03.149Z,0.00
2018-11-11T05:17:03.154Z,0.00
2018-11-11T05:18:03.151Z,0.00
2018-11-11T05:19:03.115Z,0.00
2018-11-11T05:20:03.105Z,0.00
2018-11-11T05:21:03.094Z,0.00
2018-11-11T05:22:03.244Z,0.00
2018-11-11T05:23:03.095Z,0.00
2018-11-11T05:24:03.073Z,0.00
2018-11-11T05:25:03.050Z,0.00
2018-11-11T05:26:03.038Z,0.00
2018-11-11T05:27:03.031Z,0.00
2018-11-11T05:28:03.041Z,0.00
2018-11-11T05:29:03.003Z,0.00
2018-11-11T05:30:02.994Z,0.00
2018-11-11T05:31:02.994Z,0.00
2018-11-11T05:32:02.970Z,0.00
2018-11-11T05:33:02.987Z,0.00
2018-11-11T05:34:02.952Z,0.00
2018-11-11T05:35:02.937Z,0.00
2018-11-11T05:36:02.926Z,0.00
2018-11-11T05:37:02.914Z,0.00
2018-11-11T05:38:02.952Z,0.00
2018-11-11T05:39:02.897Z,0.00
2018-11-11T05:40:02.883Z,0.00
2018-11-11T05:41:02.874Z,0.00
2018-11-11T05:42:02.862Z,0.00
2018-11-11T05:43:02.878Z,0.00
2018-11-11T05:44:02.836Z,0.00
2018-11-11T05:45:02.833Z,0.00
2018-11-11T05:46:02.822Z,0.00
2018-11-11T05:47:02.805Z,0.00
2018-11-11T05:48:02.818Z,0.00
2018-11-11T05:49:02.785Z,0.00
2018-11-11T05:50:02.770Z,0.00
2018-11-11T05:51:02.772Z,0.00
2018-11-11T05:52:02.754Z,0.00
2018-11-11T05:53:02.761Z,0.00
2018-11-11T05:54:02.727Z,0.00
2018-11-11T05:55:02.741Z,0.00
2018-11-11T05:56:02.705Z,0.00
2018-11-11T05:57:02.692Z,0.00
2018-11-11T05:58:02.705Z,0.00
2018-11-11T05:59:02.703Z,0.00
2018-11-11T06:00:02.667Z,0.00
2018-11-11T06:01:02.648Z,0.00
2018-11-11T06:02:02.637Z,0.00
2018-11-11T06:03:02.655Z,0.00
2018-11-11T06:04:02.612Z,0.00
2018-11-11T06:05:02.616Z,0.00
2018-11-11T06:06:02.594Z,0.00
2018-11-11T06:07:02.580Z,0.00
2018-11-11T06:08:02.592Z,0.00
2018-11-11T06:09:02.585Z,0.00
2018-11-11T06:10:02.566Z,0.00
2018-11-11T06:11:02.537Z,4.00
2018-11-11T06:12:02.525Z,4.00
2018-11-11T06:13:02.537Z,4.00
2018-11-11T06:14:02.516Z,4.00
2018-11-11T06:15:02.491Z,4.00
2018-11-11T06:16:02.482Z,4.00
2018-11-11T06:17:02.467Z,4.00
2018-11-11T06:18:02.478Z,8.00
2018-11-11T06:19:02.448Z,4.00
2018-11-11T06:20:02.446Z,8.00
2018-11-11T06:21:02.430Z,8.00
2018-11-11T06:22:02.413Z,12.00
2018-11-11T06:23:02.424Z,16.00
2018-11-11T06:24:02.391Z,24.00
2018-11-11T06:25:02.379Z,24.00
2018-11-11T06:26:02.367Z,24.00
2018-11-11T06:27:02.374Z,28.00
2018-11-11T06:28:02.376Z,32.00
2018-11-11T06:29:02.338Z,32.00
2018-11-11T06:30:02.324Z,40.00
2018-11-11T06:31:02.315Z,48.00
2018-11-11T06:32:02.301Z,48.00
2018-11-11T06:33:02.291Z,48.00
2018-11-11T06:34:02.329Z,48.00
2018-11-11T06:35:02.268Z,52.00
2018-11-11T06:36:02.270Z,44.00
2018-11-11T06:37:02.244Z,48.00
2018-11-11T06:38:02.234Z,56.00
2018-11-11T06:39:02.260Z,72.00
2018-11-11T06:40:02.210Z,88.00
2018-11-11T06:41:02.199Z,100.00
2018-11-11T06:42:02.198Z,108.00
2018-11-11T06:43:02.184Z,120.00
2018-11-11T06:44:02.190Z,136.00
2018-11-11T06:45:02.165Z,152.00
2018-11-11T06:46:02.146Z,148.00
2018-11-11T06:47:02.140Z,132.00
2018-11-11T06:48:02.172Z,136.00
2018-11-11T06:49:02.143Z,164.00
2018-11-11T06:50:02.103Z,192.00
2018-11-11T06:51:02.089Z,232.00
2018-11-11T06:52:02.095Z,236.00
2018-11-11T06:53:02.064Z,256.00
2018-11-11T06:54:02.080Z,312.00
2018-11-11T06:55:02.054Z,328.00
2018-11-11T06:56:02.042Z,316.00
2018-11-11T06:57:02.024Z,312.00
2018-11-11T06:58:02.057Z,340.00
2018-11-11T06:59:02.029Z,372.00
2018-11-11T07:00:01.988Z,424.00
2018-11-11T07:01:01.989Z,472.00
2018-11-11T07:02:01.965Z,480.00
2018-11-11T07:03:01.955Z,472.00
2018-11-11T07:04:01.968Z,464.00
2018-11-11T07:05:01.941Z,480.00
2018-11-11T07:06:01.924Z,484.00
2018-11-11T07:07:01.918Z,492.00
2018-11-11T07:08:01.898Z,476.00
2018-11-11T07:09:01.919Z,480.00
2018-11-11T07:10:01.878Z,520.00
2018-11-11T07:11:01.865Z,508.00
2018-11-11T07:12:01.855Z,476.00
2018-11-11T07:13:01.843Z,536.00
2018-11-11T07:14:01.915Z,636.00
2018-11-11T07:15:01.845Z,740.00
2018-11-11T07:16:01.819Z,816.00
2018-11-11T07:17:01.799Z,836.00
2018-11-11T07:18:01.785Z,776.00
2018-11-11T07:19:01.782Z,780.00
2018-11-11T07:20:01.804Z,996.00
2018-11-11T07:21:01.757Z,1212.00
2018-11-11T07:22:01.743Z,1456.00
2018-11-11T07:23:01.734Z,1560.00
2018-11-11T07:24:01.795Z,1516.00
2018-11-11T07:25:01.732Z,1448.00
2018-11-11T07:26:01.700Z,1528.00
2018-11-11T07:27:01.698Z,1636.00
2018-11-11T07:28:01.695Z,1692.00
2018-11-11T07:29:01.667Z,1748.00
2018-11-11T07:30:01.686Z,1728.00
2018-11-11T07:31:01.641Z,1692.00
2018-11-11T07:32:01.631Z,1768.00
2018-11-11T07:33:01.622Z,1992.00
2018-11-11T07:34:01.615Z,2012.00
2018-11-11T07:35:01.634Z,2276.00
2018-11-11T07:36:01.652Z,2332.00
2018-11-11T07:37:01.592Z,2172.00
2018-11-11T07:38:01.563Z,2328.00
2018-11-11T07:39:01.553Z,2400.00
2018-11-11T07:40:01.569Z,2536.00
2018-11-11T07:41:01.530Z,2892.00
2018-11-11T07:42:01.530Z,2704.00
2018-11-11T07:43:01.542Z,2184.00
2018-11-11T07:44:01.495Z,1912.00
2018-11-11T07:45:01.513Z,1612.00
2018-11-11T07:46:01.480Z,1268.00
2018-11-11T07:47:01.465Z,1128.00
2018-11-11T07:48:01.573Z,1104.00
2018-11-11T07:49:01.453Z,880.00
2018-11-11T07:50:01.456Z,688.00
2018-11-11T07:51:01.434Z,684.00
2018-11-11T07:52:01.502Z,920.00
2018-11-11T07:53:01.398Z,1044.00
2018-11-11T07:54:01.387Z,1056.00
2018-11-11T07:55:01.444Z,1324.00
2018-11-11T07:56:01.364Z,1896.00
2018-11-11T07:57:01.351Z,2528.00
2018-11-11T07:58:01.352Z,2796.00
2018-11-11T07:59:01.341Z,2412.00
2018-11-11T08:00:01.346Z,2236.00
2018-11-11T08:01:01.307Z,2040.00
2018-11-11T08:02:01.344Z,1912.00
2018-11-11T08:03:01.292Z,1820.00
2018-11-11T08:04:01.276Z,1676.00
2018-11-11T08:05:01.289Z,1544.00
2018-11-11T08:06:01.252Z,1492.00
2018-11-11T08:07:01.250Z,1664.00
2018-11-11T08:08:01.233Z,1656.00
2018-11-11T08:09:01.220Z,1464.00
2018-11-11T08:10:01.234Z,1240.00
2018-11-11T08:11:01.230Z,1392.00
2018-11-11T08:12:01.186Z,1692.00
2018-11-11T08:13:01.175Z,1796.00
2018-11-11T08:14:01.172Z,1888.00
2018-11-11T08:15:01.177Z,1868.00
2018-11-11T08:16:01.143Z,1872.00
2018-11-11T08:17:01.129Z,1880.00
2018-11-11T08:18:01.119Z,1940.00
2018-11-11T08:19:01.122Z,2036.00
2018-11-11T08:20:01.128Z,2108.00
2018-11-11T08:21:01.083Z,2124.00
2018-11-11T08:22:01.077Z,2132.00
2018-11-11T08:23:01.060Z,2032.00
2018-11-11T08:24:01.049Z,1888.00
2018-11-11T08:25:01.066Z,1848.00
2018-11-11T08:26:01.028Z,1900.00
2018-11-11T08:27:01.047Z,1932.00
2018-11-11T08:28:01.010Z,1932.00
2018-11-11T08:29:00.996Z,2028.00
2018-11-11T08:30:01.012Z,2116.00
2018-11-11T08:31:00.975Z,2372.00
2018-11-11T08:32:00.979Z,2568.00
2018-11-11T08:33:00.954Z,2576.00
2018-11-11T08:34:00.939Z,2536.00
2018-11-11T08:35:00.962Z,2404.00
2018-11-11T08:36:00.923Z,2608.00
2018-11-11T08:37:00.904Z,2452.00
2018-11-11T08:38:00.895Z,2376.00
2018-11-11T08:39:00.890Z,2232.00
2018-11-11T08:40:00.901Z,2420.00
2018-11-11T08:41:00.868Z,2252.00
2018-11-11T08:42:00.848Z,2404.00
2018-11-11T08:43:00.841Z,2116.00
2018-11-11T08:44:00.835Z,2028.00
2018-11-11T08:45:00.844Z,2032.00
2018-11-11T08:46:00.805Z,2136.00
2018-11-11T08:47:00.794Z,2348.00
2018-11-11T08:48:00.827Z,2792.00
2018-11-11T08:49:00.776Z,2904.00
2018-11-11T08:50:00.785Z,3084.00
2018-11-11T08:51:00.767Z,3120.00
2018-11-11T08:52:00.738Z,3252.00
2018-11-11T08:53:00.735Z,3324.00
2018-11-11T08:54:00.716Z,3132.00
2018-11-11T08:55:00.706Z,2712.00
2018-11-11T08:56:00.721Z,2696.00
2018-11-11T08:57:00.684Z,2520.00
2018-11-11T08:58:00.733Z,2520.00
2018-11-11T08:59:00.661Z,2680.00
2018-11-11T09:00:00.672Z,3096.00
2018-11-11T09:01:00.636Z,3368.00
2018-11-11T09:02:00.628Z,2792.00
2018-11-11T09:03:00.616Z,2976.00
2018-11-11T09:04:00.609Z,3120.00
2018-11-11T09:05:00.670Z,3480.00
2018-11-11T09:06:00.611Z,3472.00
2018-11-11T09:07:00.573Z,3560.00
2018-11-11T09:08:00.567Z,3472.00
2018-11-11T09:09:00.554Z,2952.00
2018-11-11T09:10:00.542Z,3372.00
2018-11-11T09:11:00.548Z,3540.00
2018-11-11T09:12:00.522Z,3764.00
2018-11-11T09:13:00.502Z,4060.00
2018-11-11T09:14:00.494Z,3576.00
2018-11-11T09:15:00.506Z,3632.00
2018-11-11T09:16:00.507Z,3800.00
2018-11-11T09:17:00.460Z,3320.00
2018-11-11T09:18:00.462Z,3232.00
2018-11-11T09:19:00.438Z,3844.00
2018-11-11T09:20:00.458Z,3888.00
2018-11-11T09:21:00.441Z,4308.00
2018-11-11T09:22:00.406Z,4468.00
2018-11-11T09:23:00.393Z,3924.00
2018-11-11T09:24:00.386Z,3220.00
2018-11-11T09:25:00.391Z,3648.00
2018-11-11T09:26:00.392Z,4468.00
2018-11-11T09:27:00.348Z,4724.00
2018-11-11T09:28:00.340Z,5144.00
2018-11-11T09:29:00.332Z,4924.00
2018-11-11T09:30:00.316Z,4924.00
2018-11-11T09:31:00.347Z,4932.00
2018-11-11T09:32:00.289Z,4948.00
2018-11-11T09:33:00.284Z,4188.00
2018-11-11T09:34:00.272Z,3460.00
2018-11-11T09:35:00.335Z,3924.00
2018-11-11T09:36:00.283Z,4688.00
2018-11-11T09:37:00.235Z,4776.00
2018-11-11T09:38:00.235Z,4076.00
2018-11-11T09:39:00.276Z,4004.00
2018-11-11T09:40:00.200Z,4208.00
2018-11-11T09:41:00.231Z,4640.00
2018-11-11T09:42:00.186Z,4328.00
2018-11-11T09:43:00.169Z,3712.00
2018-11-11T09:44:00.157Z,3288.00
2018-11-11T09:45:00.145Z,2976.00
2018-11-11T09:46:00.164Z,3088.00
2018-11-11T09:47:00.138Z,3332.00
2018-11-11T09:48:00.188Z,3364.00
2018-11-11T09:49:00.105Z,4036.00
2018-11-11T09:50:00.092Z,3856.00
2018-11-11T09:51:00.107Z,3452.00
2018-11-11T09:52:00.070Z,3408.00
2018-11-11T09:53:00.071Z,3192.00
2018-11-11T09:54:00.106Z,2436.00
2018-11-11T09:55:00.037Z,2336.00
2018-11-11T09:56:00.052Z,2680.00
2018-11-11T09:57:00.013Z,2612.00
2018-11-11T09:58:00.005Z,2148.00
2018-11-11T09:59:00.000Z,1880.00
2018-11-11T10:00:00.062Z,1904.00
2018-11-11T10:00:59.989Z,2180.00
2018-11-11T10:01:59.958Z,2476.00
2018-11-11T10:02:59.945Z,2988.00
2018-11-11T10:03:59.934Z,3508.00
2018-11-11T10:04:59.954Z,4152.00
2018-11-11T10:05:59.941Z,5116.00
2018-11-11T10:06:59.979Z,4676.00
2018-11-11T10:07:59.888Z,3488.00
2018-11-11T10:08:59.907Z,3404.00
2018-11-11T10:09:59.865Z,3256.00
2018-11-11T10:10:59.879Z,2552.00
2018-11-11T10:11:59.875Z,1816.00
2018-11-11T10:12:59.837Z,1716.00
2018-11-11T10:13:59.824Z,1892.00
2018-11-11T10:14:59.810Z,1888.00
2018-11-11T10:15:59.831Z,1484.00
2018-11-11T10:16:59.790Z,1204.00
2018-11-11T10:17:59.774Z,1216.00
2018-11-11T10:18:59.784Z,1416.00
2018-11-11T10:19:59.802Z,2116.00
2018-11-11T10:20:59.842Z,3500.00
2018-11-11T10:21:59.762Z,4304.00
2018-11-11T10:22:59.721Z,4100.00
2018-11-11T10:23:59.714Z,4324.00
2018-11-11T10:24:59.700Z,4936.00
2018-11-11T10:25:59.685Z,4632.00
2018-11-11T10:26:59.700Z,4276.00
2018-11-11T10:27:59.668Z,4260.00
2018-11-11T10:28:59.655Z,3696.00
2018-11-11T10:29:59.646Z,3072.00
2018-11-11T10:30:59.645Z,2984.00
2018-11-11T10:31:59.655Z,2984.00
2018-11-11T10:32:59.609Z,2776.00
2018-11-11T10:33:59.599Z,3580.00
2018-11-11T10:34:59.587Z,4316.00
2018-11-11T10:35:59.590Z,4128.00
2018-11-11T10:36:59.567Z,4172.00
2018-11-11T10:37:59.576Z,3884.00
2018-11-11T10:38:59.600Z,2920.00
2018-11-11T10:39:59.529Z,2248.00
2018-11-11T10:40:59.549Z,2012.00
2018-11-11T10:41:59.513Z,2124.00
2018-11-11T10:42:59.520Z,2252.00
2018-11-11T10:43:59.487Z,2584.00
2018-11-11T10:44:59.477Z,2732.00
2018-11-11T10:45:59.464Z,2484.00
2018-11-11T10:46:59.460Z,2276.00
2018-11-11T10:47:59.471Z,2256.00
2018-11-11T10:48:59.429Z,2448.00
2018-11-11T10:49:59.416Z,2680.00
2018-11-11T10:50:59.432Z,2756.00
2018-11-11T10:51:59.395Z,2792.00
2018-11-11T10:52:59.424Z,3028.00
2018-11-11T10:53:59.380Z,3356.00
2018-11-11T10:54:59.363Z,3556.00
2018-11-11T10:55:59.352Z,4940.00
2018-11-11T10:56:59.342Z,5064.00
2018-11-11T10:57:59.338Z,5380.00
2018-11-11T10:58:59.345Z,4908.00
2018-11-11T10:59:59.311Z,4760.00
2018-11-11T11:00:59.299Z,4652.00
2018-11-11T11:01:59.291Z,3624.00
2018-11-11T11:02:59.272Z,3768.00
2018-11-11T11:03:59.303Z,4700.00
2018-11-11T11:04:59.250Z,4644.00
2018-11-11T11:05:59.272Z,4000.00
2018-11-11T11:06:59.242Z,3408.00
2018-11-11T11:07:59.215Z,3284.00
2018-11-11T11:08:59.242Z,3804.00
2018-11-11T11:09:59.194Z,4028.00
2018-11-11T11:10:59.186Z,3484.00
2018-11-11T11:11:59.183Z,2716.00
2018-11-11T11:12:59.176Z,2744.00
2018-11-11T11:13:59.261Z,3132.00
2018-11-11T11:14:59.139Z,3764.00
2018-11-11T11:15:59.125Z,4364.00
2018-11-11T11:16:59.117Z,4260.00
2018-11-11T11:17:59.118Z,3624.00
2018-11-11T11:18:59.128Z,3372.00
2018-11-11T11:19:59.090Z,3748.00
2018-11-11T11:20:59.077Z,3456.00
2018-11-11T11:21:59.060Z,3004.00
2018-11-11T11:22:59.127Z,2500.00
2018-11-11T11:23:59.044Z,2248.00
2018-11-11T11:24:59.056Z,2384.00
2018-11-11T11:25:59.038Z,2640.00
2018-11-11T11:26:59.007Z,2844.00
2018-11-11T11:27:58.992Z,2620.00
2018-11-11T11:28:58.988Z,2604.00
2018-11-11T11:29:58.999Z,3032.00
2018-11-11T11:30:58.959Z,3360.00
2018-11-11T11:31:58.993Z,3500.00
2018-11-11T11:32:58.939Z,3608.00
2018-11-11T11:33:58.923Z,3660.00
2018-11-11T11:34:58.940Z,3740.00
2018-11-11T11:35:58.904Z,3748.00
2018-11-11T11:36:58.894Z,4040.00
2018-11-11T11:37:58.937Z,4280.00
2018-11-11T11:38:58.868Z,4136.00
2018-11-11T11:39:58.890Z,4684.00
2018-11-11T11:40:58.851Z,5312.00
2018-11-11T11:41:58.837Z,5672.00
2018-11-11T11:42:58.828Z,5752.00
2018-11-11T11:43:58.833Z,5736.00
2018-11-11T11:44:58.826Z,5800.00
2018-11-11T11:45:58.810Z,5740.00
2018-11-11T11:46:58.779Z,5716.00
2018-11-11T11:47:58.770Z,5844.00
2018-11-11T11:48:58.762Z,5880.00
2018-11-11T11:49:58.782Z,5716.00
2018-11-11T11:50:58.759Z,5512.00
2018-11-11T11:51:58.750Z,5360.00
2018-11-11T11:52:58.763Z,5316.00
2018-11-11T11:53:58.701Z,5384.00
2018-11-11T11:54:58.690Z,5428.00
2018-11-11T11:55:58.703Z,5560.00
2018-11-11T11:56:58.678Z,5700.00
2018-11-11T11:57:58.675Z,5672.00
2018-11-11T11:58:58.646Z,5660.00
2018-11-11T11:59:58.634Z,5620.00
2018-11-11T12:00:58.650Z,5368.00
2018-11-11T12:01:58.634Z,5032.00
2018-11-11T12:02:58.606Z,4952.00
2018-11-11T12:03:58.594Z,5096.00
2018-11-11T12:04:58.577Z,5196.00
2018-11-11T12:05:58.594Z,5184.00
2018-11-11T12:06:58.572Z,5200.00
2018-11-11T12:07:58.547Z,5396.00
2018-11-11T12:08:58.545Z,5852.00
2018-11-11T12:09:58.527Z,6452.00
2018-11-11T12:10:58.538Z,7136.00
2018-11-11T12:11:58.513Z,7432.00
2018-11-11T12:12:58.490Z,7440.00
2018-11-11T12:13:58.495Z,6956.00
2018-11-11T12:14:58.468Z,6016.00
2018-11-11T12:15:58.481Z,5000.00
2018-11-11T12:16:58.465Z,4676.00
2018-11-11T12:17:58.439Z,4308.00
2018-11-11T12:18:58.423Z,3504.00
2018-11-11T12:19:58.453Z,3152.00
2018-11-11T12:20:58.428Z,2576.00
2018-11-11T12:21:58.393Z,2424.00
2018-11-11T12:22:58.411Z,2668.00
2018-11-11T12:23:58.373Z,2804.00
2018-11-11T12:24:58.371Z,2440.00
2018-11-11T12:25:58.371Z,2156.00
2018-11-11T12:26:58.339Z,1684.00
2018-11-11T12:27:58.327Z,1284.00
2018-11-11T12:28:58.311Z,1112.00
2018-11-11T12:29:58.299Z,1136.00
2018-11-11T12:30:58.388Z,1204.00
2018-11-11T12:31:58.286Z,1184.00
2018-11-11T12:32:58.266Z,1312.00
2018-11-11T12:33:58.259Z,1400.00
2018-11-11T12:34:58.300Z,1436.00
2018-11-11T12:35:58.257Z,1860.00
2018-11-11T12:36:58.233Z,1708.00
2018-11-11T12:37:58.210Z,1520.00
2018-11-11T12:38:58.214Z,1840.00
2018-11-11T12:39:58.409Z,1896.00
2018-11-11T12:40:58.209Z,2204.00
2018-11-11T12:41:58.174Z,2712.00
2018-11-11T12:42:58.163Z,2916.00